sensor_id;sensor_type;location;lat;lon;timestamp;P1;durP1;ratioP1;P2;durP2;ratioP2
6105;SDS011;3083;51.508;7.966;2024-03-22T00:00:39;52.33;;;21.63;;
6105;SDS011;3083;51.508;7.966;2024-03-22T00:03:07;50.50;;;22.07;;
6105;SDS011;3083;51.508;7.966;2024-03-22T00:05:33;52.87;;;21.20;;
6105;SDS011;3083;51.508;7.966;2024-03-22T00:08:00;51.13;;;21.50;;
6105;SDS011;3083;51.508;7.966;2024-03-22T00:10:26;55.90;;;23.23;;
6105;SDS011;3083;51.508;7.966;2024-03-22T00:12:53;56.93;;;23.27;;
6105;SDS011;3083;51.508;7.966;2024-03-22T00:15:18;58.10;;;22.10;;
6105;SDS011;3083;51.508;7.966;2024-03-22T00:17:45;54.23;;;22.57;;
6105;SDS011;3083;51.508;7.966;2024-03-22T00:20:13;51.17;;;21.90;;
6105;SDS011;3083;51.508;7.966;2024-03-22T00:22:39;46.87;;;20.60;;
6105;SDS011;3083;51.508;7.966;2024-03-22T00:25:05;46.63;;;20.70;;
6105;SDS011;3083;51.508;7.966;2024-03-22T00:27:33;55.90;;;21.03;;
6105;SDS011;3083;51.508;7.966;2024-03-22T00:29:58;55.27;;;21.47;;
6105;SDS011;3083;51.508;7.966;2024-03-22T00:32:26;54.80;;;21.40;;
6105;SDS011;3083;51.508;7.966;2024-03-22T00:34:52;52.50;;;22.20;;
6105;SDS011;3083;51.508;7.966;2024-03-22T00:37:20;55.40;;;22.77;;
6105;SDS011;3083;51.508;7.966;2024-03-22T00:39:46;58.73;;;22.93;;
6105;SDS011;3083;51.508;7.966;2024-03-22T00:42:13;53.50;;;21.30;;
6105;SDS011;3083;51.508;7.966;2024-03-22T00:44:38;47.80;;;21.00;;
6105;SDS011;3083;51.508;7.966;2024-03-22T00:47:06;54.50;;;22.07;;
6105;SDS011;3083;51.508;7.966;2024-03-22T00:49:32;51.83;;;21.07;;
6105;SDS011;3083;51.508;7.966;2024-03-22T00:51:59;48.40;;;20.53;;
6105;SDS011;3083;51.508;7.966;2024-03-22T00:54:27;51.97;;;21.40;;
6105;SDS011;3083;51.508;7.966;2024-03-22T00:56:53;51.70;;;21.37;;
6105;SDS011;3083;51.508;7.966;2024-03-22T00:59:19;51.77;;;20.60;;
6105;SDS011;3083;51.508;7.966;2024-03-22T01:01:46;52.97;;;21.33;;
6105;SDS011;3083;51.508;7.966;2024-03-22T01:04:13;55.53;;;21.20;;
6105;SDS011;3083;51.508;7.966;2024-03-22T01:06:40;47.67;;;19.23;;
6105;SDS011;3083;51.508;7.966;2024-03-22T01:09:06;50.47;;;21.40;;
6105;SDS011;3083;51.508;7.966;2024-03-22T01:11:34;51.03;;;20.20;;
6105;SDS011;3083;51.508;7.966;2024-03-22T01:14:00;53.37;;;21.97;;
6105;SDS011;3083;51.508;7.966;2024-03-22T01:16:27;54.83;;;20.93;;
6105;SDS011;3083;51.508;7.966;2024-03-22T01:18:53;53.00;;;20.63;;
6105;SDS011;3083;51.508;7.966;2024-03-22T01:21:20;54.93;;;21.50;;
6105;SDS011;3083;51.508;7.966;2024-03-22T01:23:50;56.97;;;20.77;;
6105;SDS011;3083;51.508;7.966;2024-03-22T01:26:17;54.67;;;21.20;;
6105;SDS011;3083;51.508;7.966;2024-03-22T01:28:45;53.83;;;20.70;;
6105;SDS011;3083;51.508;7.966;2024-03-22T01:31:12;54.13;;;20.40;;
6105;SDS011;3083;51.508;7.966;2024-03-22T01:33:38;53.50;;;20.47;;
6105;SDS011;3083;51.508;7.966;2024-03-22T01:36:05;48.77;;;20.30;;
6105;SDS011;3083;51.508;7.966;2024-03-22T01:38:31;48.83;;;20.00;;
6105;SDS011;3083;51.508;7.966;2024-03-22T01:40:58;43.73;;;19.57;;
6105;SDS011;3083;51.508;7.966;2024-03-22T01:43:24;51.93;;;20.37;;
6105;SDS011;3083;51.508;7.966;2024-03-22T01:45:52;48.83;;;19.57;;
6105;SDS011;3083;51.508;7.966;2024-03-22T01:48:18;47.27;;;19.40;;
6105;SDS011;3083;51.508;7.966;2024-03-22T01:50:45;48.00;;;19.90;;
6105;SDS011;3083;51.508;7.966;2024-03-22T01:53:11;51.73;;;18.47;;
6105;SDS011;3083;51.508;7.966;2024-03-22T01:55:38;48.13;;;19.10;;
6105;SDS011;3083;51.508;7.966;2024-03-22T01:58:04;42.67;;;18.13;;
6105;SDS011;3083;51.508;7.966;2024-03-22T02:00:32;44.30;;;18.20;;
6105;SDS011;3083;51.508;7.966;2024-03-22T02:02:59;39.33;;;16.97;;
6105;SDS011;3083;51.508;7.966;2024-03-22T02:05:26;44.33;;;17.80;;
6105;SDS011;3083;51.508;7.966;2024-03-22T02:07:52;46.47;;;18.53;;
6105;SDS011;3083;51.508;7.966;2024-03-22T02:10:19;42.90;;;17.83;;
6105;SDS011;3083;51.508;7.966;2024-03-22T02:12:45;38.97;;;18.27;;
6105;SDS011;3083;51.508;7.966;2024-03-22T02:15:12;43.77;;;19.80;;
6105;SDS011;3083;51.508;7.966;2024-03-22T02:17:39;37.57;;;16.50;;
6105;SDS011;3083;51.508;7.966;2024-03-22T02:20:07;48.10;;;18.63;;
6105;SDS011;3083;51.508;7.966;2024-03-22T02:22:35;48.07;;;17.30;;
6105;SDS011;3083;51.508;7.966;2024-03-22T02:25:02;47.33;;;19.77;;
6105;SDS011;3083;51.508;7.966;2024-03-22T02:27:29;45.43;;;19.87;;
6105;SDS011;3083;51.508;7.966;2024-03-22T02:29:55;42.93;;;18.80;;
6105;SDS011;3083;51.508;7.966;2024-03-22T02:32:22;42.63;;;17.63;;
6105;SDS011;3083;51.508;7.966;2024-03-22T02:34:48;43.23;;;18.23;;
6105;SDS011;3083;51.508;7.966;2024-03-22T02:37:15;48.90;;;19.90;;
6105;SDS011;3083;51.508;7.966;2024-03-22T02:39:41;48.10;;;18.40;;
6105;SDS011;3083;51.508;7.966;2024-03-22T02:42:08;46.93;;;19.33;;
6105;SDS011;3083;51.508;7.966;2024-03-22T02:44:35;47.70;;;19.87;;
6105;SDS011;3083;51.508;7.966;2024-03-22T02:47:07;47.13;;;19.87;;
6105;SDS011;3083;51.508;7.966;2024-03-22T02:49:34;43.27;;;18.70;;
6105;SDS011;3083;51.508;7.966;2024-03-22T02:52:00;40.90;;;17.60;;
6105;SDS011;3083;51.508;7.966;2024-03-22T02:54:27;47.30;;;18.97;;
6105;SDS011;3083;51.508;7.966;2024-03-22T02:56:53;48.93;;;19.80;;
6105;SDS011;3083;51.508;7.966;2024-03-22T02:59:21;44.03;;;19.03;;
6105;SDS011;3083;51.508;7.966;2024-03-22T03:01:47;46.43;;;18.03;;
6105;SDS011;3083;51.508;7.966;2024-03-22T03:04:13;36.77;;;17.73;;
6105;SDS011;3083;51.508;7.966;2024-03-22T03:06:39;47.27;;;17.87;;
6105;SDS011;3083;51.508;7.966;2024-03-22T03:09:06;45.37;;;19.83;;
6105;SDS011;3083;51.508;7.966;2024-03-22T03:11:33;45.10;;;18.80;;
6105;SDS011;3083;51.508;7.966;2024-03-22T03:14:00;49.00;;;20.00;;
6105;SDS011;3083;51.508;7.966;2024-03-22T03:16:27;39.47;;;17.93;;
6105;SDS011;3083;51.508;7.966;2024-03-22T03:18:54;47.53;;;19.33;;
6105;SDS011;3083;51.508;7.966;2024-03-22T03:21:20;43.30;;;18.10;;
6105;SDS011;3083;51.508;7.966;2024-03-22T03:23:47;43.17;;;18.27;;
6105;SDS011;3083;51.508;7.966;2024-03-22T03:26:13;43.37;;;18.60;;
6105;SDS011;3083;51.508;7.966;2024-03-22T03:28:39;44.83;;;18.80;;
6105;SDS011;3083;51.508;7.966;2024-03-22T03:31:05;40.10;;;17.97;;
6105;SDS011;3083;51.508;7.966;2024-03-22T03:33:33;44.40;;;17.37;;
6105;SDS011;3083;51.508;7.966;2024-03-22T03:35:59;47.83;;;19.20;;
6105;SDS011;3083;51.508;7.966;2024-03-22T03:38:26;38.63;;;17.23;;
6105;SDS011;3083;51.508;7.966;2024-03-22T03:40:52;44.33;;;17.50;;
6105;SDS011;3083;51.508;7.966;2024-03-22T03:43:19;42.73;;;18.20;;
6105;SDS011;3083;51.508;7.966;2024-03-22T03:45:45;37.90;;;16.77;;
6105;SDS011;3083;51.508;7.966;2024-03-22T03:48:11;43.17;;;18.17;;
6105;SDS011;3083;51.508;7.966;2024-03-22T03:50:39;40.20;;;17.40;;
6105;SDS011;3083;51.508;7.966;2024-03-22T03:53:06;39.13;;;17.27;;
6105;SDS011;3083;51.508;7.966;2024-03-22T03:55:32;43.23;;;18.30;;
6105;SDS011;3083;51.508;7.966;2024-03-22T03:57:59;36.23;;;16.13;;
6105;SDS011;3083;51.508;7.966;2024-03-22T04:00:25;37.67;;;16.27;;
6105;SDS011;3083;51.508;7.966;2024-03-22T04:02:51;39.87;;;16.60;;
6105;SDS011;3083;51.508;7.966;2024-03-22T04:05:18;37.67;;;16.40;;
6105;SDS011;3083;51.508;7.966;2024-03-22T04:07:48;42.50;;;17.13;;
6105;SDS011;3083;51.508;7.966;2024-03-22T04:10:15;41.17;;;16.63;;
6105;SDS011;3083;51.508;7.966;2024-03-22T04:12:44;39.90;;;17.10;;
6105;SDS011;3083;51.508;7.966;2024-03-22T04:15:10;41.00;;;15.70;;
6105;SDS011;3083;51.508;7.966;2024-03-22T04:17:37;35.97;;;14.87;;
6105;SDS011;3083;51.508;7.966;2024-03-22T04:20:02;38.73;;;15.63;;
6105;SDS011;3083;51.508;7.966;2024-03-22T04:22:31;34.50;;;15.80;;
6105;SDS011;3083;51.508;7.966;2024-03-22T04:24:58;38.57;;;16.07;;
6105;SDS011;3083;51.508;7.966;2024-03-22T04:27:25;34.03;;;15.40;;
6105;SDS011;3083;51.508;7.966;2024-03-22T04:29:51;33.27;;;15.07;;
6105;SDS011;3083;51.508;7.966;2024-03-22T04:32:17;33.43;;;14.80;;
6105;SDS011;3083;51.508;7.966;2024-03-22T04:34:43;35.57;;;16.33;;
6105;SDS011;3083;51.508;7.966;2024-03-22T04:37:10;34.87;;;14.47;;
6105;SDS011;3083;51.508;7.966;2024-03-22T04:39:37;34.50;;;15.30;;
6105;SDS011;3083;51.508;7.966;2024-03-22T04:42:07;34.80;;;15.57;;
6105;SDS011;3083;51.508;7.966;2024-03-22T04:44:34;33.60;;;14.50;;
6105;SDS011;3083;51.508;7.966;2024-03-22T04:47:01;32.90;;;15.43;;
6105;SDS011;3083;51.508;7.966;2024-03-22T04:49:26;32.37;;;15.53;;
6105;SDS011;3083;51.508;7.966;2024-03-22T04:51:53;36.17;;;15.63;;
6105;SDS011;3083;51.508;7.966;2024-03-22T04:54:19;32.57;;;14.33;;
6105;SDS011;3083;51.508;7.966;2024-03-22T04:56:46;34.00;;;16.60;;
6105;SDS011;3083;51.508;7.966;2024-03-22T04:59:14;40.80;;;16.00;;
6105;SDS011;3083;51.508;7.966;2024-03-22T05:01:40;33.00;;;15.37;;
6105;SDS011;3083;51.508;7.966;2024-03-22T05:04:07;38.53;;;17.00;;
6105;SDS011;3083;51.508;7.966;2024-03-22T05:06:33;39.10;;;15.67;;
6105;SDS011;3083;51.508;7.966;2024-03-22T05:08:59;39.87;;;15.57;;
6105;SDS011;3083;51.508;7.966;2024-03-22T05:11:25;34.47;;;15.27;;
6105;SDS011;3083;51.508;7.966;2024-03-22T05:13:52;40.87;;;15.67;;
6105;SDS011;3083;51.508;7.966;2024-03-22T05:16:19;38.93;;;16.53;;
6105;SDS011;3083;51.508;7.966;2024-03-22T05:18:46;30.67;;;14.37;;
6105;SDS011;3083;51.508;7.966;2024-03-22T05:21:12;35.40;;;15.30;;
6105;SDS011;3083;51.508;7.966;2024-03-22T05:23:39;33.60;;;15.00;;
6105;SDS011;3083;51.508;7.966;2024-03-22T05:26:05;37.73;;;16.00;;
6105;SDS011;3083;51.508;7.966;2024-03-22T05:28:31;33.87;;;14.60;;
6105;SDS011;3083;51.508;7.966;2024-03-22T05:30:58;36.43;;;15.20;;
6105;SDS011;3083;51.508;7.966;2024-03-22T05:33:26;37.83;;;15.07;;
6105;SDS011;3083;51.508;7.966;2024-03-22T05:35:53;31.83;;;14.40;;
6105;SDS011;3083;51.508;7.966;2024-03-22T05:38:20;32.00;;;13.97;;
6105;SDS011;3083;51.508;7.966;2024-03-22T05:40:46;32.50;;;14.57;;
6105;SDS011;3083;51.508;7.966;2024-03-22T05:43:13;30.17;;;14.60;;
6105;SDS011;3083;51.508;7.966;2024-03-22T05:45:38;26.07;;;13.63;;
6105;SDS011;3083;51.508;7.966;2024-03-22T05:48:06;31.30;;;14.17;;
6105;SDS011;3083;51.508;7.966;2024-03-22T05:50:33;31.17;;;14.23;;
6105;SDS011;3083;51.508;7.966;2024-03-22T05:53:00;27.37;;;12.80;;
6105;SDS011;3083;51.508;7.966;2024-03-22T05:55:26;26.30;;;14.00;;
6105;SDS011;3083;51.508;7.966;2024-03-22T05:57:56;30.93;;;13.70;;
6105;SDS011;3083;51.508;7.966;2024-03-22T06:00:22;28.77;;;14.57;;
6105;SDS011;3083;51.508;7.966;2024-03-22T06:02:48;28.87;;;13.70;;
6105;SDS011;3083;51.508;7.966;2024-03-22T06:05:14;28.63;;;13.50;;
6105;SDS011;3083;51.508;7.966;2024-03-22T06:07:44;30.90;;;14.67;;
6105;SDS011;3083;51.508;7.966;2024-03-22T06:10:11;30.73;;;13.90;;
6105;SDS011;3083;51.508;7.966;2024-03-22T06:12:37;24.73;;;13.83;;
6105;SDS011;3083;51.508;7.966;2024-03-22T06:15:04;27.27;;;13.57;;
6105;SDS011;3083;51.508;7.966;2024-03-22T06:17:31;27.33;;;13.37;;
6105;SDS011;3083;51.508;7.966;2024-03-22T06:19:58;27.03;;;13.73;;
6105;SDS011;3083;51.508;7.966;2024-03-22T06:22:25;27.83;;;13.67;;
6105;SDS011;3083;51.508;7.966;2024-03-22T06:24:53;26.47;;;13.10;;
6105;SDS011;3083;51.508;7.966;2024-03-22T06:27:20;26.93;;;13.13;;
6105;SDS011;3083;51.508;7.966;2024-03-22T06:29:45;26.50;;;13.67;;
6105;SDS011;3083;51.508;7.966;2024-03-22T06:32:12;24.87;;;11.90;;
6105;SDS011;3083;51.508;7.966;2024-03-22T06:34:38;21.67;;;11.17;;
6105;SDS011;3083;51.508;7.966;2024-03-22T06:37:05;23.83;;;11.77;;
6105;SDS011;3083;51.508;7.966;2024-03-22T06:39:31;20.33;;;11.63;;
6105;SDS011;3083;51.508;7.966;2024-03-22T06:41:59;21.70;;;11.37;;
6105;SDS011;3083;51.508;7.966;2024-03-22T06:44:25;20.00;;;10.80;;
6105;SDS011;3083;51.508;7.966;2024-03-22T06:46:52;20.37;;;11.73;;
6105;SDS011;3083;51.508;7.966;2024-03-22T06:49:18;18.63;;;10.70;;
6105;SDS011;3083;51.508;7.966;2024-03-22T06:51:45;21.47;;;10.63;;
6105;SDS011;3083;51.508;7.966;2024-03-22T06:54:11;19.43;;;10.70;;
6105;SDS011;3083;51.508;7.966;2024-03-22T06:56:38;17.50;;;10.20;;
6105;SDS011;3083;51.508;7.966;2024-03-22T06:59:05;17.00;;;10.10;;
6105;SDS011;3083;51.508;7.966;2024-03-22T07:01:32;20.27;;;9.97;;
6105;SDS011;3083;51.508;7.966;2024-03-22T07:03:57;21.07;;;9.83;;
6105;SDS011;3083;51.508;7.966;2024-03-22T07:06:24;16.27;;;9.50;;
6105;SDS011;3083;51.508;7.966;2024-03-22T07:08:50;17.00;;;9.90;;
6105;SDS011;3083;51.508;7.966;2024-03-22T07:11:17;15.23;;;8.90;;
6105;SDS011;3083;51.508;7.966;2024-03-22T07:13:43;16.33;;;8.97;;
6105;SDS011;3083;51.508;7.966;2024-03-22T07:16:11;19.97;;;9.27;;
6105;SDS011;3083;51.508;7.966;2024-03-22T07:18:37;20.00;;;9.97;;
6105;SDS011;3083;51.508;7.966;2024-03-22T07:21:04;14.90;;;8.87;;
6105;SDS011;3083;51.508;7.966;2024-03-22T07:23:30;15.63;;;8.50;;
6105;SDS011;3083;51.508;7.966;2024-03-22T07:25:57;19.57;;;9.97;;
6105;SDS011;3083;51.508;7.966;2024-03-22T07:28:23;17.50;;;9.00;;
6105;SDS011;3083;51.508;7.966;2024-03-22T07:30:50;15.20;;;8.90;;
6105;SDS011;3083;51.508;7.966;2024-03-22T07:33:17;17.10;;;9.50;;
6105;SDS011;3083;51.508;7.966;2024-03-22T07:35:44;16.80;;;9.17;;
6105;SDS011;3083;51.508;7.966;2024-03-22T07:38:10;19.77;;;9.80;;
6105;SDS011;3083;51.508;7.966;2024-03-22T07:40:37;17.00;;;9.80;;
6105;SDS011;3083;51.508;7.966;2024-03-22T07:43:03;16.60;;;10.17;;
6105;SDS011;3083;51.508;7.966;2024-03-22T07:45:30;18.33;;;10.03;;
6105;SDS011;3083;51.508;7.966;2024-03-22T07:47:57;19.37;;;10.20;;
6105;SDS011;3083;51.508;7.966;2024-03-22T07:50:25;17.37;;;9.77;;
6105;SDS011;3083;51.508;7.966;2024-03-22T07:52:51;16.80;;;10.30;;
6105;SDS011;3083;51.508;7.966;2024-03-22T07:55:18;19.90;;;10.00;;
6105;SDS011;3083;51.508;7.966;2024-03-22T07:57:44;17.83;;;10.40;;
6105;SDS011;3083;51.508;7.966;2024-03-22T08:00:11;17.80;;;10.77;;
6105;SDS011;3083;51.508;7.966;2024-03-22T08:02:37;22.77;;;11.70;;
6105;SDS011;3083;51.508;7.966;2024-03-22T08:05:04;22.93;;;12.03;;
6105;SDS011;3083;51.508;7.966;2024-03-22T08:07:32;26.13;;;11.17;;
6105;SDS011;3083;51.508;7.966;2024-03-22T08:09:59;21.40;;;11.70;;
6105;SDS011;3083;51.508;7.966;2024-03-22T08:12:27;19.70;;;11.60;;
6105;SDS011;3083;51.508;7.966;2024-03-22T08:14:54;18.00;;;11.27;;
6105;SDS011;3083;51.508;7.966;2024-03-22T08:17:20;19.53;;;11.90;;
6105;SDS011;3083;51.508;7.966;2024-03-22T08:19:47;21.73;;;11.63;;
6105;SDS011;3083;51.508;7.966;2024-03-22T08:22:13;21.17;;;12.03;;
6105;SDS011;3083;51.508;7.966;2024-03-22T08:24:41;20.83;;;12.03;;
6105;SDS011;3083;51.508;7.966;2024-03-22T08:27:07;19.80;;;12.40;;
6105;SDS011;3083;51.508;7.966;2024-03-22T08:29:34;23.40;;;12.50;;
6105;SDS011;3083;51.508;7.966;2024-03-22T08:32:00;20.40;;;11.97;;
6105;SDS011;3083;51.508;7.966;2024-03-22T08:34:29;20.30;;;12.60;;
6105;SDS011;3083;51.508;7.966;2024-03-22T08:36:55;20.53;;;12.33;;
6105;SDS011;3083;51.508;7.966;2024-03-22T08:39:22;24.40;;;12.63;;
6105;SDS011;3083;51.508;7.966;2024-03-22T08:41:50;22.10;;;13.07;;
6105;SDS011;3083;51.508;7.966;2024-03-22T08:44:17;24.40;;;13.00;;
6105;SDS011;3083;51.508;7.966;2024-03-22T08:46:43;23.73;;;14.50;;
6105;SDS011;3083;51.508;7.966;2024-03-22T08:49:10;25.67;;;13.03;;
6105;SDS011;3083;51.508;7.966;2024-03-22T08:51:37;23.90;;;13.73;;
6105;SDS011;3083;51.508;7.966;2024-03-22T08:54:04;23.10;;;14.03;;
6105;SDS011;3083;51.508;7.966;2024-03-22T08:56:30;21.50;;;13.50;;
6105;SDS011;3083;51.508;7.966;2024-03-22T08:58:58;24.27;;;14.97;;
6105;SDS011;3083;51.508;7.966;2024-03-22T09:01:24;30.17;;;15.33;;
6105;SDS011;3083;51.508;7.966;2024-03-22T09:03:51;23.43;;;14.80;;
6105;SDS011;3083;51.508;7.966;2024-03-22T09:06:18;25.50;;;14.23;;
6105;SDS011;3083;51.508;7.966;2024-03-22T09:08:45;23.77;;;14.60;;
6105;SDS011;3083;51.508;7.966;2024-03-22T09:11:11;26.23;;;15.03;;
6105;SDS011;3083;51.508;7.966;2024-03-22T09:13:38;28.17;;;15.07;;
6105;SDS011;3083;51.508;7.966;2024-03-22T09:16:06;25.17;;;14.73;;
6105;SDS011;3083;51.508;7.966;2024-03-22T09:18:32;31.03;;;15.47;;
6105;SDS011;3083;51.508;7.966;2024-03-22T09:20:58;23.07;;;13.60;;
6105;SDS011;3083;51.508;7.966;2024-03-22T09:23:25;24.30;;;14.30;;
6105;SDS011;3083;51.508;7.966;2024-03-22T09:25:51;27.07;;;14.80;;
6105;SDS011;3083;51.508;7.966;2024-03-22T09:28:18;26.63;;;14.43;;
6105;SDS011;3083;51.508;7.966;2024-03-22T09:30:44;30.17;;;14.77;;
6105;SDS011;3083;51.508;7.966;2024-03-22T09:33:14;24.93;;;14.83;;
6105;SDS011;3083;51.508;7.966;2024-03-22T09:35:40;23.43;;;13.83;;
6105;SDS011;3083;51.508;7.966;2024-03-22T09:38:06;25.80;;;13.83;;
6105;SDS011;3083;51.508;7.966;2024-03-22T09:40:32;25.47;;;13.93;;
6105;SDS011;3083;51.508;7.966;2024-03-22T09:43:01;22.87;;;13.73;;
6105;SDS011;3083;51.508;7.966;2024-03-22T09:45:28;23.43;;;12.83;;
6105;SDS011;3083;51.508;7.966;2024-03-22T09:47:55;24.43;;;13.83;;
6105;SDS011;3083;51.508;7.966;2024-03-22T09:50:24;24.00;;;13.07;;
6105;SDS011;3083;51.508;7.966;2024-03-22T09:52:52;24.63;;;12.60;;
6105;SDS011;3083;51.508;7.966;2024-03-22T09:55:18;25.10;;;13.83;;
6105;SDS011;3083;51.508;7.966;2024-03-22T09:57:48;24.47;;;12.90;;
6105;SDS011;3083;51.508;7.966;2024-03-22T10:00:15;21.67;;;13.30;;
6105;SDS011;3083;51.508;7.966;2024-03-22T10:02:45;25.00;;;12.60;;
6105;SDS011;3083;51.508;7.966;2024-03-22T10:05:11;21.93;;;11.90;;
6105;SDS011;3083;51.508;7.966;2024-03-22T10:07:40;20.30;;;12.30;;
6105;SDS011;3083;51.508;7.966;2024-03-22T10:10:06;21.93;;;11.80;;
6105;SDS011;3083;51.508;7.966;2024-03-22T10:12:33;21.73;;;13.07;;
6105;SDS011;3083;51.508;7.966;2024-03-22T10:14:59;25.33;;;13.07;;
6105;SDS011;3083;51.508;7.966;2024-03-22T10:17:26;18.93;;;11.27;;
6105;SDS011;3083;51.508;7.966;2024-03-22T10:19:53;21.40;;;12.30;;
6105;SDS011;3083;51.508;7.966;2024-03-22T10:22:20;20.20;;;12.17;;
6105;SDS011;3083;51.508;7.966;2024-03-22T10:24:47;17.33;;;11.40;;
6105;SDS011;3083;51.508;7.966;2024-03-22T10:27:15;17.47;;;10.43;;
6105;SDS011;3083;51.508;7.966;2024-03-22T10:29:40;17.90;;;10.80;;
6105;SDS011;3083;51.508;7.966;2024-03-22T10:32:08;21.23;;;10.83;;
6105;SDS011;3083;51.508;7.966;2024-03-22T10:34:35;18.00;;;10.00;;
6105;SDS011;3083;51.508;7.966;2024-03-22T10:37:02;15.83;;;10.00;;
6105;SDS011;3083;51.508;7.966;2024-03-22T10:39:29;16.37;;;9.90;;
6105;SDS011;3083;51.508;7.966;2024-03-22T10:41:58;18.97;;;10.63;;
6105;SDS011;3083;51.508;7.966;2024-03-22T10:44:24;17.40;;;10.10;;
6105;SDS011;3083;51.508;7.966;2024-03-22T10:46:51;18.27;;;10.67;;
6105;SDS011;3083;51.508;7.966;2024-03-22T10:49:19;16.40;;;9.67;;
6105;SDS011;3083;51.508;7.966;2024-03-22T10:51:48;14.83;;;8.80;;
6105;SDS011;3083;51.508;7.966;2024-03-22T10:54:17;17.50;;;9.30;;
6105;SDS011;3083;51.508;7.966;2024-03-22T10:56:47;18.20;;;10.10;;
6105;SDS011;3083;51.508;7.966;2024-03-22T10:59:15;15.73;;;9.20;;
6105;SDS011;3083;51.508;7.966;2024-03-22T11:01:46;16.30;;;8.67;;
6105;SDS011;3083;51.508;7.966;2024-03-22T11:04:12;14.00;;;8.27;;
6105;SDS011;3083;51.508;7.966;2024-03-22T11:06:41;12.70;;;7.37;;
6105;SDS011;3083;51.508;7.966;2024-03-22T11:09:18;12.20;;;6.90;;
6105;SDS011;3083;51.508;7.966;2024-03-22T11:11:48;10.47;;;6.50;;
6105;SDS011;3083;51.508;7.966;2024-03-22T11:14:15;11.57;;;7.17;;
6105;SDS011;3083;51.508;7.966;2024-03-22T11:16:43;9.50;;;5.87;;
6105;SDS011;3083;51.508;7.966;2024-03-22T11:19:09;12.50;;;6.43;;
6105;SDS011;3083;51.508;7.966;2024-03-22T11:21:37;14.70;;;6.43;;
6105;SDS011;3083;51.508;7.966;2024-03-22T11:24:03;11.43;;;5.83;;
6105;SDS011;3083;51.508;7.966;2024-03-22T11:26:30;10.30;;;6.27;;
6105;SDS011;3083;51.508;7.966;2024-03-22T11:28:56;10.20;;;6.20;;
6105;SDS011;3083;51.508;7.966;2024-03-22T11:31:25;9.10;;;5.33;;
6105;SDS011;3083;51.508;7.966;2024-03-22T11:33:52;10.00;;;5.73;;
6105;SDS011;3083;51.508;7.966;2024-03-22T11:36:19;10.50;;;5.83;;
6105;SDS011;3083;51.508;7.966;2024-03-22T11:38:46;12.47;;;7.70;;
6105;SDS011;3083;51.508;7.966;2024-03-22T11:41:14;14.50;;;6.80;;
6105;SDS011;3083;51.508;7.966;2024-03-22T11:43:42;15.77;;;6.43;;
6105;SDS011;3083;51.508;7.966;2024-03-22T11:46:10;12.73;;;6.43;;
6105;SDS011;3083;51.508;7.966;2024-03-22T11:48:39;11.50;;;6.60;;
6105;SDS011;3083;51.508;7.966;2024-03-22T11:51:06;10.83;;;5.83;;
6105;SDS011;3083;51.508;7.966;2024-03-22T11:53:33;11.43;;;6.23;;
6105;SDS011;3083;51.508;7.966;2024-03-22T11:56:01;11.60;;;6.70;;
6105;SDS011;3083;51.508;7.966;2024-03-22T11:58:28;12.10;;;6.20;;
6105;SDS011;3083;51.508;7.966;2024-03-22T12:00:55;8.60;;;6.07;;
6105;SDS011;3083;51.508;7.966;2024-03-22T12:03:22;11.37;;;5.90;;
6105;SDS011;3083;51.508;7.966;2024-03-22T12:05:50;12.03;;;7.00;;
6105;SDS011;3083;51.508;7.966;2024-03-22T12:08:19;10.00;;;5.57;;
6105;SDS011;3083;51.508;7.966;2024-03-22T12:10:46;10.57;;;6.03;;
6105;SDS011;3083;51.508;7.966;2024-03-22T12:13:12;11.87;;;6.67;;
6105;SDS011;3083;51.508;7.966;2024-03-22T12:15:39;16.33;;;6.90;;
6105;SDS011;3083;51.508;7.966;2024-03-22T12:18:04;12.50;;;7.30;;
6105;SDS011;3083;51.508;7.966;2024-03-22T12:20:32;12.07;;;6.67;;
6105;SDS011;3083;51.508;7.966;2024-03-22T12:22:59;10.60;;;7.60;;
6105;SDS011;3083;51.508;7.966;2024-03-22T12:25:26;14.87;;;7.87;;
6105;SDS011;3083;51.508;7.966;2024-03-22T12:27:51;12.10;;;7.13;;
6105;SDS011;3083;51.508;7.966;2024-03-22T12:30:18;12.27;;;6.53;;
6105;SDS011;3083;51.508;7.966;2024-03-22T12:32:44;13.00;;;7.30;;
6105;SDS011;3083;51.508;7.966;2024-03-22T12:35:11;11.80;;;7.27;;
6105;SDS011;3083;51.508;7.966;2024-03-22T12:37:37;18.37;;;6.70;;
6105;SDS011;3083;51.508;7.966;2024-03-22T12:40:06;10.77;;;6.97;;
6105;SDS011;3083;51.508;7.966;2024-03-22T12:42:33;15.23;;;8.03;;
6105;SDS011;3083;51.508;7.966;2024-03-22T12:45:00;15.63;;;7.90;;
6105;SDS011;3083;51.508;7.966;2024-03-22T12:47:26;15.40;;;8.60;;
6105;SDS011;3083;51.508;7.966;2024-03-22T12:49:53;17.73;;;8.00;;
6105;SDS011;3083;51.508;7.966;2024-03-22T12:52:19;13.53;;;7.40;;
6105;SDS011;3083;51.508;7.966;2024-03-22T12:54:46;14.93;;;8.70;;
6105;SDS011;3083;51.508;7.966;2024-03-22T12:57:14;18.27;;;8.97;;
6105;SDS011;3083;51.508;7.966;2024-03-22T12:59:40;14.37;;;8.03;;
6105;SDS011;3083;51.508;7.966;2024-03-22T13:02:07;16.47;;;8.60;;
6105;SDS011;3083;51.508;7.966;2024-03-22T13:04:34;15.47;;;8.70;;
6105;SDS011;3083;51.508;7.966;2024-03-22T13:07:00;14.07;;;8.47;;
6105;SDS011;3083;51.508;7.966;2024-03-22T13:09:27;15.30;;;8.43;;
6105;SDS011;3083;51.508;7.966;2024-03-22T13:11:53;15.10;;;8.97;;
6105;SDS011;3083;51.508;7.966;2024-03-22T13:14:21;17.67;;;9.00;;
6105;SDS011;3083;51.508;7.966;2024-03-22T13:16:47;13.43;;;8.50;;
6105;SDS011;3083;51.508;7.966;2024-03-22T13:19:14;15.30;;;9.53;;
6105;SDS011;3083;51.508;7.966;2024-03-22T13:21:40;19.63;;;10.40;;
6105;SDS011;3083;51.508;7.966;2024-03-22T13:24:09;16.40;;;9.50;;
6105;SDS011;3083;51.508;7.966;2024-03-22T13:26:35;18.77;;;10.10;;
6105;SDS011;3083;51.508;7.966;2024-03-22T13:29:02;18.73;;;11.20;;
6105;SDS011;3083;51.508;7.966;2024-03-22T13:31:29;18.13;;;10.60;;
6105;SDS011;3083;51.508;7.966;2024-03-22T13:33:56;24.90;;;10.67;;
6105;SDS011;3083;51.508;7.966;2024-03-22T13:36:21;21.70;;;12.30;;
6105;SDS011;3083;51.508;7.966;2024-03-22T13:38:50;24.63;;;12.80;;
6105;SDS011;3083;51.508;7.966;2024-03-22T13:41:16;19.40;;;11.27;;
6105;SDS011;3083;51.508;7.966;2024-03-22T13:43:43;20.30;;;12.10;;
6105;SDS011;3083;51.508;7.966;2024-03-22T13:46:09;18.77;;;11.33;;
6105;SDS011;3083;51.508;7.966;2024-03-22T13:48:41;18.47;;;11.37;;
6105;SDS011;3083;51.508;7.966;2024-03-22T13:51:07;21.20;;;12.00;;
6105;SDS011;3083;51.508;7.966;2024-03-22T13:53:34;22.00;;;12.77;;
6105;SDS011;3083;51.508;7.966;2024-03-22T13:56:00;22.30;;;12.67;;
6105;SDS011;3083;51.508;7.966;2024-03-22T13:58:27;19.63;;;12.27;;
6105;SDS011;3083;51.508;7.966;2024-03-22T14:00:53;21.77;;;12.60;;
6105;SDS011;3083;51.508;7.966;2024-03-22T14:03:20;22.90;;;12.37;;
6105;SDS011;3083;51.508;7.966;2024-03-22T14:05:47;24.90;;;13.43;;
6105;SDS011;3083;51.508;7.966;2024-03-22T14:08:14;23.07;;;13.80;;
6105;SDS011;3083;51.508;7.966;2024-03-22T14:10:40;20.47;;;13.87;;
6105;SDS011;3083;51.508;7.966;2024-03-22T14:13:07;21.43;;;13.47;;
6105;SDS011;3083;51.508;7.966;2024-03-22T14:15:33;26.90;;;14.37;;
6105;SDS011;3083;51.508;7.966;2024-03-22T14:18:00;25.27;;;14.17;;
6105;SDS011;3083;51.508;7.966;2024-03-22T14:20:26;27.70;;;14.60;;
6105;SDS011;3083;51.508;7.966;2024-03-22T14:22:55;29.77;;;15.50;;
6105;SDS011;3083;51.508;7.966;2024-03-22T14:25:21;27.37;;;15.00;;
6105;SDS011;3083;51.508;7.966;2024-03-22T14:27:48;27.30;;;14.10;;
6105;SDS011;3083;51.508;7.966;2024-03-22T14:30:14;25.87;;;15.10;;
6105;SDS011;3083;51.508;7.966;2024-03-22T14:32:42;26.97;;;15.07;;
6105;SDS011;3083;51.508;7.966;2024-03-22T14:35:09;27.13;;;15.17;;
6105;SDS011;3083;51.508;7.966;2024-03-22T14:37:38;25.07;;;14.43;;
6105;SDS011;3083;51.508;7.966;2024-03-22T14:40:06;25.20;;;14.03;;
6105;SDS011;3083;51.508;7.966;2024-03-22T14:42:35;24.73;;;13.90;;
6105;SDS011;3083;51.508;7.966;2024-03-22T14:45:01;28.23;;;14.87;;
6105;SDS011;3083;51.508;7.966;2024-03-22T14:47:28;24.23;;;14.40;;